sensor_id;sensor_type;location;lat;lon;timestamp;P1;P4;P2;P0;N10;N4;N25;N1;N05;TS
82350;SPS30;71951;39.366;22.950;2023-12-20T08:18:27;76;;74;;;;;;;
82350;SPS30;71951;39.366;22.950;2023-12-20T08:25:49;64;;62;;;;;;;
82350;SPS30;71951;39.366;22.950;2023-12-20T08:29:43;59;;56;;;;;;;
82350;SPS30;71951;39.366;22.950;2023-12-20T08:33:10;56;;54;;;;;;;
82350;SPS30;71951;39.366;22.950;2023-12-20T08:40:33;61;;60;;;;;;;
82350;SPS30;71951;39.366;22.950;2023-12-20T08:44:00;58;;56;;;;;;;
82350;SPS30;71951;39.366;22.950;2023-12-20T08:47:26;56;;55;;;;;;;
82350;SPS30;71951;39.366;22.950;2023-12-20T08:50:53;53;;51;;;;;;;
82350;SPS30;71951;39.366;22.950;2023-12-20T08:54:19;41;;40;;;;;;;
82350;SPS30;71951;39.366;22.950;2023-12-20T08:57:46;43;;42;;;;;;;
82350;SPS30;71951;39.366;22.950;2023-12-20T09:01:13;46;;45;;;;;;;
82350;SPS30;71951;39.366;22.950;2023-12-20T09:04:40;43;;42;;;;;;;
82350;SPS30;71951;39.366;22.950;2023-12-20T09:08:07;39;;38;;;;;;;
82350;SPS30;71951;39.366;22.950;2023-12-20T09:11:33;35;;34;;;;;;;
82350;SPS30;71951;39.366;22.950;2023-12-20T09:15:01;35;;34;;;;;;;
82350;SPS30;71951;39.366;22.950;2023-12-20T09:18:27;38;;37;;;;;;;
82350;SPS30;71951;39.366;22.950;2023-12-20T09:21:54;37;;37;;;;;;;
82350;SPS30;71951;39.366;22.950;2023-12-20T09:25:21;37;;37;;;;;;;
82350;SPS30;71951;39.366;22.950;2023-12-20T09:32:43;33;;32;;;;;;;
82350;SPS30;71951;39.366;22.950;2023-12-20T09:44:02;29;;29;;;;;;;
82350;SPS30;71951;39.366;22.950;2023-12-20T09:47:29;26;;26;;;;;;;
82350;SPS30;71951;39.366;22.950;2023-12-20T09:50:56;24;;23;;;;;;;
82350;SPS30;71951;39.366;22.950;2023-12-20T09:54:23;26;;26;;;;;;;
82350;SPS30;71951;39.366;22.950;2023-12-20T09:57:50;29;;27;;;;;;;
82350;SPS30;71951;39.366;22.950;2023-12-20T10:01:16;27;;26;;;;;;;
82350;SPS30;71951;39.366;22.950;2023-12-20T10:04:46;26;;25;;;;;;;
82350;SPS30;71951;39.366;22.950;2023-12-20T10:08:13;26;;25;;;;;;;
82350;SPS30;71951;39.366;22.950;2023-12-20T10:11:40;26;;26;;;;;;;
82350;SPS30;71951;39.366;22.950;2023-12-20T10:19:02;22;;22;;;;;;;
82350;SPS30;71951;39.366;22.950;2023-12-20T10:22:28;24;;23;;;;;;;
82350;SPS30;71951;39.366;22.950;2023-12-20T10:25:56;22;;22;;;;;;;
82350;SPS30;71951;39.366;22.950;2023-12-20T10:29:23;27;;26;;;;;;;
82350;SPS30;71951;39.366;22.950;2023-12-20T10:36:45;47;;46;;;;;;;
82350;SPS30;71951;39.366;22.950;2023-12-20T10:40:12;45;;43;;;;;;;
82350;SPS30;71951;39.366;22.950;2023-12-20T10:43:39;37;;36;;;;;;;
82350;SPS30;71951;39.366;22.950;2023-12-20T10:47:06;30;;29;;;;;;;
82350;SPS30;71951;39.366;22.950;2023-12-20T10:50:35;25;;24;;;;;;;
82350;SPS30;71951;39.366;22.950;2023-12-20T10:54:03;26;;26;;;;;;;
82350;SPS30;71951;39.366;22.950;2023-12-20T10:57:30;26;;26;;;;;;;
82350;SPS30;71951;39.366;22.950;2023-12-20T11:00:58;28;;27;;;;;;;
82350;SPS30;71951;39.366;22.950;2023-12-20T11:04:28;27;;27;;;;;;;
82350;SPS30;71951;39.366;22.950;2023-12-20T11:08:02;27;;26;;;;;;;
82350;SPS30;71951;39.366;22.950;2023-12-20T11:11:36;29;;28;;;;;;;
82350;SPS30;71951;39.366;22.950;2023-12-20T11:15:08;29;;28;;;;;;;
82350;SPS30;71951;39.366;22.950;2023-12-20T11:18:35;27;;26;;;;;;;
82350;SPS30;71951;39.366;22.950;2023-12-20T11:22:01;29;;28;;;;;;;
82350;SPS30;71951;39.366;22.950;2023-12-20T11:25:29;32;;31;;;;;;;
82350;SPS30;71951;39.366;22.950;2023-12-20T11:32:50;34;;33;;;;;;;
82350;SPS30;71951;39.366;22.950;2023-12-20T11:36:18;34;;33;;;;;;;
82350;SPS30;71951;39.366;22.950;2023-12-20T11:39:45;33;;32;;;;;;;
82350;SPS30;71951;39.366;22.950;2023-12-20T11:43:11;32;;32;;;;;;;
82350;SPS30;71951;39.366;22.950;2023-12-20T11:46:55;33;;32;;;;;;;
82350;SPS30;71951;39.366;22.950;2023-12-20T11:50:21;32;;31;;;;;;;
82350;SPS30;71951;39.366;22.950;2023-12-20T11:53:51;33;;32;;;;;;;
82350;SPS30;71951;39.366;22.950;2023-12-20T11:57:18;29;;28;;;;;;;
82350;SPS30;71951;39.366;22.950;2023-12-20T12:00:44;30;;29;;;;;;;
82350;SPS30;71951;39.366;22.950;2023-12-20T12:04:11;31;;30;;;;;;;
82350;SPS30;71951;39.366;22.950;2023-12-20T12:07:38;35;;34;;;;;;;
82350;SPS30;71951;39.366;22.950;2023-12-20T12:11:04;37;;36;;;;;;;
82350;SPS30;71951;39.366;22.950;2023-12-20T12:14:31;36;;35;;;;;;;
82350;SPS30;71951;39.366;22.950;2023-12-20T12:17:58;37;;35;;;;;;;
82350;SPS30;71951;39.366;22.950;2023-12-20T12:21:25;38;;37;;;;;;;
82350;SPS30;71951;39.366;22.950;2023-12-20T12:24:52;40;;38;;;;;;;
82350;SPS30;71951;39.366;22.950;2023-12-20T12:28:18;39;;38;;;;;;;
82350;SPS30;71951;39.366;22.950;2023-12-20T12:31:44;40;;38;;;;;;;
82350;SPS30;71951;39.366;22.950;2023-12-20T12:35:13;38;;36;;;;;;;
82350;SPS30;71951;39.366;22.950;2023-12-20T12:38:41;41;;39;;;;;;;
82350;SPS30;71951;39.366;22.950;2023-12-20T12:42:07;45;;42;;;;;;;
82350;SPS30;71951;39.366;22.950;2023-12-20T12:45:34;45;;43;;;;;;;
82350;SPS30;71951;39.366;22.950;2023-12-20T12:49:00;48;;45;;;;;;;
82350;SPS30;71951;39.366;22.950;2023-12-20T12:52:27;48;;46;;;;;;;
82350;SPS30;71951;39.366;22.950;2023-12-20T12:55:53;54;;52;;;;;;;
82350;SPS30;71951;39.366;22.950;2023-12-20T12:59:20;56;;55;;;;;;;
82350;SPS30;71951;39.366;22.950;2023-12-20T13:02:46;58;;56;;;;;;;
82350;SPS30;71951;39.366;22.950;2023-12-20T13:06:14;57;;55;;;;;;;
82350;SPS30;71951;39.366;22.950;2023-12-20T13:09:41;65;;62;;;;;;;
82350;SPS30;71951;39.366;22.950;2023-12-20T13:13:07;67;;64;;;;;;;
82350;SPS30;71951;39.366;22.950;2023-12-20T13:16:35;62;;60;;;;;;;
82350;SPS30;71951;39.366;22.950;2023-12-20T13:20:02;58;;56;;;;;;;
82350;SPS30;71951;39.366;22.950;2023-12-20T13:23:28;53;;51;;;;;;;
82350;SPS30;71951;39.366;22.950;2023-12-20T13:26:55;51;;50;;;;;;;
82350;SPS30;71951;39.366;22.950;2023-12-20T13:30:22;56;;54;;;;;;;
82350;SPS30;71951;39.366;22.950;2023-12-20T13:33:48;53;;51;;;;;;;
82350;SPS30;71951;39.366;22.950;2023-12-20T13:37:15;54;;52;;;;;;;
82350;SPS30;71951;39.366;22.950;2023-12-20T13:40:41;54;;52;;;;;;;
82350;SPS30;71951;39.366;22.950;2023-12-20T13:44:08;59;;57;;;;;;;
82350;SPS30;71951;39.366;22.950;2023-12-20T13:47:35;58;;57;;;;;;;
82350;SPS30;71951;39.366;22.950;2023-12-20T13:51:01;62;;59;;;;;;;
82350;SPS30;71951;39.366;22.950;2023-12-20T13:54:28;60;;58;;;;;;;
82350;SPS30;71951;39.366;22.950;2023-12-20T13:57:55;61;;58;;;;;;;
82350;SPS30;71951;39.366;22.950;2023-12-20T14:01:22;56;;54;;;;;;;
82350;SPS30;71951;39.366;22.950;2023-12-20T14:04:49;57;;55;;;;;;;
82350;SPS30;71951;39.366;22.950;2023-12-20T14:08:16;56;;54;;;;;;;
82350;SPS30;71951;39.366;22.950;2023-12-20T14:11:42;61;;59;;;;;;;
82350;SPS30;71951;39.366;22.950;2023-12-20T14:15:09;61;;58;;;;;;;
82350;SPS30;71951;39.366;22.950;2023-12-20T14:18:38;62;;60;;;;;;;
82350;SPS30;71951;39.366;22.950;2023-12-20T14:22:04;69;;67;;;;;;;
82350;SPS30;71951;39.366;22.950;2023-12-20T14:25:31;68;;64;;;;;;;
82350;SPS30;71951;39.366;22.950;2023-12-20T14:28:58;72;;70;;;;;;;
82350;SPS30;71951;39.366;22.950;2023-12-20T14:32:24;80;;78;;;;;;;
82350;SPS30;71951;39.366;22.950;2023-12-20T14:35:51;74;;71;;;;;;;
82350;SPS30;71951;39.366;22.950;2023-12-20T14:39:17;75;;73;;;;;;;
82350;SPS30;71951;39.366;22.950;2023-12-20T14:42:44;73;;71;;;;;;;
82350;SPS30;71951;39.366;22.950;2023-12-20T14:46:11;71;;69;;;;;;;
82350;SPS30;71951;39.366;22.950;2023-12-20T14:49:38;73;;70;;;;;;;
82350;SPS30;71951;39.366;22.950;2023-12-20T14:53:04;71;;68;;;;;;;
82350;SPS30;71951;39.366;22.950;2023-12-20T14:56:31;67;;65;;;;;;;
82350;SPS30;71951;39.366;22.950;2023-12-20T14:59:59;73;;71;;;;;;;
82350;SPS30;71951;39.366;22.950;2023-12-20T15:03:25;70;;68;;;;;;;
82350;SPS30;71951;39.366;22.950;2023-12-20T15:06:52;78;;76;;;;;;;
82350;SPS30;71951;39.366;22.950;2023-12-20T15:10:19;79;;76;;;;;;;
82350;SPS30;71951;39.366;22.950;2023-12-20T15:13:45;75;;72;;;;;;;
82350;SPS30;71951;39.366;22.950;2023-12-20T15:17:12;81;;78;;;;;;;
82350;SPS30;71951;39.366;22.950;2023-12-20T15:20:39;86;;83;;;;;;;
82350;SPS30;71951;39.366;22.950;2023-12-20T15:24:05;77;;75;;;;;;;
82350;SPS30;71951;39.366;22.950;2023-12-20T15:27:32;71;;68;;;;;;;
82350;SPS30;71951;39.366;22.950;2023-12-20T15:31:00;78;;75;;;;;;;
82350;SPS30;71951;39.366;22.950;2023-12-20T15:34:27;91;;88;;;;;;;
82350;SPS30;71951;39.366;22.950;2023-12-20T15:37:53;99;;95;;;;;;;
82350;SPS30;71951;39.366;22.950;2023-12-20T15:41:20;110;;105;;;;;;;
82350;SPS30;71951;39.366;22.950;2023-12-20T15:44:49;117;;112;;;;;;;
82350;SPS30;71951;39.366;22.950;2023-12-20T15:48:15;111;;105;;;;;;;
82350;SPS30;71951;39.366;22.950;2023-12-20T15:51:42;126;;121;;;;;;;
82350;SPS30;71951;39.366;22.950;2023-12-20T15:55:08;135;;130;;;;;;;
82350;SPS30;71951;39.366;22.950;2023-12-20T15:58:35;150;;144;;;;;;;
82350;SPS30;71951;39.366;22.950;2023-12-20T16:02:02;132;;127;;;;;;;
82350;SPS30;71951;39.366;22.950;2023-12-20T16:05:29;128;;123;;;;;;;
82350;SPS30;71951;39.366;22.950;2023-12-20T16:08:55;134;;129;;;;;;;
82350;SPS30;71951;39.366;22.950;2023-12-20T16:12:22;133;;129;;;;;;;
82350;SPS30;71951;39.366;22.950;2023-12-20T16:15:49;129;;123;;;;;;;
82350;SPS30;71951;39.366;22.950;2023-12-20T16:19:15;127;;123;;;;;;;
82350;SPS30;71951;39.366;22.950;2023-12-20T16:22:42;126;;122;;;;;;;
82350;SPS30;71951;39.366;22.950;2023-12-20T16:26:08;142;;137;;;;;;;
82350;SPS30;71951;39.366;22.950;2023-12-20T16:29:38;138;;134;;;;;;;
82350;SPS30;71951;39.366;22.950;2023-12-20T16:33:04;146;;140;;;;;;;
82350;SPS30;71951;39.366;22.950;2023-12-20T16:36:34;151;;146;;;;;;;
82350;SPS30;71951;39.366;22.950;2023-12-20T16:40:15;148;;143;;;;;;;
82350;SPS30;71951;39.366;22.950;2023-12-20T16:43:41;167;;162;;;;;;;
82350;SPS30;71951;39.366;22.950;2023-12-20T16:47:08;155;;150;;;;;;;
82350;SPS30;71951;39.366;22.950;2023-12-20T16:50:35;149;;143;;;;;;;
82350;SPS30;71951;39.366;22.950;2023-12-20T16:54:02;143;;139;;;;;;;
82350;SPS30;71951;39.366;22.950;2023-12-20T16:57:29;132;;128;;;;;;;
82350;SPS30;71951;39.366;22.950;2023-12-20T17:00:55;133;;128;;;;;;;
82350;SPS30;71951;39.366;22.950;2023-12-20T17:04:22;121;;116;;;;;;;
82350;SPS30;71951;39.366;22.950;2023-12-20T17:07:48;129;;124;;;;;;;
82350;SPS30;71951;39.366;22.950;2023-12-20T17:11:15;101;;98;;;;;;;
82350;SPS30;71951;39.366;22.950;2023-12-20T17:14:42;99;;96;;;;;;;
